ETNS

Details ICAO ETNS
Name SCHLESWIG
Region Germany - Military
Timezone Europe/Berlin (UTC+1.0)
Plans Departing 6
Arriving 3
Stats Elevation 70 ft / 21 m (AMSL)
Location 54.458625° 9.516833°
Runways 2
Magnetic Variation 2.642° E
Sunrise 2017-12-16 07:39:41 UTC / 2017-12-16 08:39:41 Local
Sunset 2017-12-16 14:58:12 UTC / 2017-12-16 15:58:12 Local
Advertisement - Login to hide

Runways

ID Width Length Bearing (true) Bearing (mag) Surface Threshold Offset Overrun Length
05 98 ft / 30 m 7,969 ft / 2,429 m 47.79° 45.15° Asphalt 0 ft / 0 m 1,089 ft / 332 m
07 148 ft / 45 m 6,536 ft / 1,992 m 73.22° 70.58° Asphalt 0 ft / 0 m 301 ft / 92 m
23 98 ft / 30 m 7,969 ft / 2,429 m 227.82° 225.18° Asphalt 0 ft / 0 m 1,017 ft / 310 m
25 148 ft / 45 m 6,536 ft / 1,992 m 253.24° 250.60° Asphalt 0 ft / 0 m 305 ft / 93 m

Map

Weather


0- 5 10 15 20 25 30 35+ Temperature / ° C

Clouds and Precipitation
Forecast for 2017-12-16 18:00 UTC. Updated 16 minutes ago

Ground ~20,000 ft ~40,000 ft Winds

METAR

ETNS 161520Z AUTO 25007KT 9999 // ////// 02/00 Q1006 ///

TAF

Not found

Frequencies

Tower 125.10 MHz BREMEN INFO
Approach 135.15 MHz RADAR
Approach 123.30 MHz RADAR
Warning: Do not use this data for real-world aviation or navigation. No guarantee of current accuracy is given.